sensor_id;sensor_type;location;lat;lon;timestamp;temperature;humidity
1760;DHT22;877;46.266;20.062;2023-10-08T00:01:21;138.50;14.70
1760;DHT22;877;46.266;20.062;2023-10-08T00:03:48;138.50;14.70
1760;DHT22;877;46.266;20.062;2023-10-08T00:06:18;138.50;14.80
1760;DHT22;877;46.266;20.062;2023-10-08T00:08:47;138.50;14.80
1760;DHT22;877;46.266;20.062;2023-10-08T00:11:13;138.50;14.80
1760;DHT22;877;46.266;20.062;2023-10-08T00:13:42;138.50;14.90
1760;DHT22;877;46.266;20.062;2023-10-08T00:16:13;138.50;14.90
1760;DHT22;877;46.266;20.062;2023-10-08T00:18:43;138.40;14.90
1760;DHT22;877;46.266;20.062;2023-10-08T00:21:17;138.40;15.00
1760;DHT22;877;46.266;20.062;2023-10-08T00:23:46;138.40;15.00
1760;DHT22;877;46.266;20.062;2023-10-08T00:26:18;138.40;15.00
1760;DHT22;877;46.266;20.062;2023-10-08T00:28:56;138.40;15.00
1760;DHT22;877;46.266;20.062;2023-10-08T00:31:22;138.40;15.00
1760;DHT22;877;46.266;20.062;2023-10-08T00:33:52;138.50;15.10
1760;DHT22;877;46.266;20.062;2023-10-08T00:36:18;138.50;15.10
1760;DHT22;877;46.266;20.062;2023-10-08T00:38:46;138.50;15.10
1760;DHT22;877;46.266;20.062;2023-10-08T00:41:24;138.50;15.10
1760;DHT22;877;46.266;20.062;2023-10-08T00:43:55;138.50;15.20
1760;DHT22;877;46.266;20.062;2023-10-08T00:46:26;138.50;15.20
1760;DHT22;877;46.266;20.062;2023-10-08T00:48:59;138.50;15.20
1760;DHT22;877;46.266;20.062;2023-10-08T00:51:37;138.50;15.20
1760;DHT22;877;46.266;20.062;2023-10-08T00:54:07;138.40;15.30
1760;DHT22;877;46.266;20.062;2023-10-08T00:56:35;138.40;15.30
1760;DHT22;877;46.266;20.062;2023-10-08T00:59:23;138.40;15.30
1760;DHT22;877;46.266;20.062;2023-10-08T01:01:51;138.40;15.40
1760;DHT22;877;46.266;20.062;2023-10-08T01:04:18;138.40;15.40
1760;DHT22;877;46.266;20.062;2023-10-08T01:06:56;138.40;15.40
1760;DHT22;877;46.266;20.062;2023-10-08T01:09:27;138.40;15.50
1760;DHT22;877;46.266;20.062;2023-10-08T01:12:27;138.40;15.50
1760;DHT22;877;46.266;20.062;2023-10-08T01:14:58;138.40;15.50
1760;DHT22;877;46.266;20.062;2023-10-08T01:17:42;138.40;15.50
1760;DHT22;877;46.266;20.062;2023-10-08T01:20:24;138.40;15.50
1760;DHT22;877;46.266;20.062;2023-10-08T01:23:04;138.40;15.50
1760;DHT22;877;46.266;20.062;2023-10-08T01:25:30;138.40;15.60
1760;DHT22;877;46.266;20.062;2023-10-08T01:27:59;138.40;15.60
1760;DHT22;877;46.266;20.062;2023-10-08T01:30:34;138.40;15.60
1760;DHT22;877;46.266;20.062;2023-10-08T01:33:08;138.40;15.60
1760;DHT22;877;46.266;20.062;2023-10-08T01:35:38;138.40;15.60
1760;DHT22;877;46.266;20.062;2023-10-08T01:38:04;138.40;15.60
1760;DHT22;877;46.266;20.062;2023-10-08T01:40:30;138.40;15.60
1760;DHT22;877;46.266;20.062;2023-10-08T01:42:56;138.40;15.60
1760;DHT22;877;46.266;20.062;2023-10-08T01:45:30;138.40;15.70
1760;DHT22;877;46.266;20.062;2023-10-08T01:47:58;138.40;15.70
1760;DHT22;877;46.266;20.062;2023-10-08T01:50:23;138.30;15.70
1760;DHT22;877;46.266;20.062;2023-10-08T01:52:55;138.30;15.70
1760;DHT22;877;46.266;20.062;2023-10-08T01:55:21;138.30;15.80
1760;DHT22;877;46.266;20.062;2023-10-08T01:57:50;138.30;15.80
1760;DHT22;877;46.266;20.062;2023-10-08T02:00:19;138.30;15.80
1760;DHT22;877;46.266;20.062;2023-10-08T02:02:50;138.20;15.80
1760;DHT22;877;46.266;20.062;2023-10-08T02:05:16;138.20;15.90
1760;DHT22;877;46.266;20.062;2023-10-08T02:07:47;138.20;15.90
1760;DHT22;877;46.266;20.062;2023-10-08T02:10:13;138.20;15.90
1760;DHT22;877;46.266;20.062;2023-10-08T02:12:40;138.20;15.90
1760;DHT22;877;46.266;20.062;2023-10-08T02:15:07;138.20;15.90
1760;DHT22;877;46.266;20.062;2023-10-08T02:17:34;138.10;16.00
1760;DHT22;877;46.266;20.062;2023-10-08T02:20:01;138.10;16.00
1760;DHT22;877;46.266;20.062;2023-10-08T02:22:31;138.10;16.00
1760;DHT22;877;46.266;20.062;2023-10-08T02:24:57;138.10;16.00
1760;DHT22;877;46.266;20.062;2023-10-08T02:27:27;138.10;16.00
1760;DHT22;877;46.266;20.062;2023-10-08T02:29:53;138.10;16.00
1760;DHT22;877;46.266;20.062;2023-10-08T02:32:21;138.10;16.00
1760;DHT22;877;46.266;20.062;2023-10-08T02:34:50;138.10;16.00
1760;DHT22;877;46.266;20.062;2023-10-08T02:37:18;138.10;16.00
1760;DHT22;877;46.266;20.062;2023-10-08T02:39:45;138.10;16.00
1760;DHT22;877;46.266;20.062;2023-10-08T02:42:10;138.10;16.00
1760;DHT22;877;46.266;20.062;2023-10-08T02:44:40;138.20;16.00
1760;DHT22;877;46.266;20.062;2023-10-08T02:47:09;138.20;15.90
1760;DHT22;877;46.266;20.062;2023-10-08T02:49:46;138.20;15.90
1760;DHT22;877;46.266;20.062;2023-10-08T02:52:18;138.30;15.90
1760;DHT22;877;46.266;20.062;2023-10-08T02:54:44;138.30;15.80
1760;DHT22;877;46.266;20.062;2023-10-08T02:57:10;138.30;15.80
1760;DHT22;877;46.266;20.062;2023-10-08T02:59:40;138.30;15.80
1760;DHT22;877;46.266;20.062;2023-10-08T03:02:13;138.30;15.80
1760;DHT22;877;46.266;20.062;2023-10-08T03:04:49;138.40;15.80
1760;DHT22;877;46.266;20.062;2023-10-08T03:07:17;138.40;15.70
1760;DHT22;877;46.266;20.062;2023-10-08T03:09:59;138.40;15.70
1760;DHT22;877;46.266;20.062;2023-10-08T03:12:32;138.40;15.70
1760;DHT22;877;46.266;20.062;2023-10-08T03:15:03;138.40;15.60
1760;DHT22;877;46.266;20.062;2023-10-08T03:17:49;138.40;15.60
1760;DHT22;877;46.266;20.062;2023-10-08T03:20:16;138.50;15.50
1760;DHT22;877;46.266;20.062;2023-10-08T03:23:01;138.50;15.50
1760;DHT22;877;46.266;20.062;2023-10-08T03:25:30;138.50;15.50
1760;DHT22;877;46.266;20.062;2023-10-08T03:27:56;138.50;15.40
1760;DHT22;877;46.266;20.062;2023-10-08T03:30:27;138.50;15.40
1760;DHT22;877;46.266;20.062;2023-10-08T03:32:54;138.60;15.40
1760;DHT22;877;46.266;20.062;2023-10-08T03:35:23;138.60;15.40
1760;DHT22;877;46.266;20.062;2023-10-08T03:37:54;138.60;15.30
1760;DHT22;877;46.266;20.062;2023-10-08T03:40:31;138.60;15.30
1760;DHT22;877;46.266;20.062;2023-10-08T03:43:09;138.60;15.30
1760;DHT22;877;46.266;20.062;2023-10-08T03:45:49;138.60;15.30
1760;DHT22;877;46.266;20.062;2023-10-08T03:48:25;138.60;15.30
1760;DHT22;877;46.266;20.062;2023-10-08T03:50:51;138.60;15.30
1760;DHT22;877;46.266;20.062;2023-10-08T03:53:32;138.60;15.30
1760;DHT22;877;46.266;20.062;2023-10-08T03:56:03;138.60;15.30
1760;DHT22;877;46.266;20.062;2023-10-08T03:58:32;138.60;15.30
1760;DHT22;877;46.266;20.062;2023-10-08T04:01:03;138.60;15.30
1760;DHT22;877;46.266;20.062;2023-10-08T04:03:37;138.60;15.30
1760;DHT22;877;46.266;20.062;2023-10-08T04:06:21;138.60;15.30
1760;DHT22;877;46.266;20.062;2023-10-08T04:09:00;138.50;15.30
1760;DHT22;877;46.266;20.062;2023-10-08T04:11:38;138.50;15.30
1760;DHT22;877;46.266;20.062;2023-10-08T04:14:19;138.50;15.30
1760;DHT22;877;46.266;20.062;2023-10-08T04:16:47;138.50;15.30
1760;DHT22;877;46.266;20.062;2023-10-08T04:19:18;138.50;15.30
1760;DHT22;877;46.266;20.062;2023-10-08T04:21:44;138.50;15.30
1760;DHT22;877;46.266;20.062;2023-10-08T04:24:11;138.50;15.30
1760;DHT22;877;46.266;20.062;2023-10-08T04:26:40;138.50;15.30
1760;DHT22;877;46.266;20.062;2023-10-08T04:29:06;138.50;15.30
1760;DHT22;877;46.266;20.062;2023-10-08T04:31:35;138.50;15.30
1760;DHT22;877;46.266;20.062;2023-10-08T04:34:09;138.50;15.30
1760;DHT22;877;46.266;20.062;2023-10-08T04:36:43;138.50;15.30
1760;DHT22;877;46.266;20.062;2023-10-08T04:39:11;138.50;15.30
1760;DHT22;877;46.266;20.062;2023-10-08T04:41:41;138.50;15.30
1760;DHT22;877;46.266;20.062;2023-10-08T04:44:11;138.50;15.40
1760;DHT22;877;46.266;20.062;2023-10-08T04:46:44;138.50;15.40
1760;DHT22;877;46.266;20.062;2023-10-08T04:49:17;138.50;15.40
1760;DHT22;877;46.266;20.062;2023-10-08T04:52:07;138.50;15.30
1760;DHT22;877;46.266;20.062;2023-10-08T04:54:45;138.50;15.30
1760;DHT22;877;46.266;20.062;2023-10-08T04:57:18;138.50;15.30
1760;DHT22;877;46.266;20.062;2023-10-08T04:59:47;138.50;15.30
1760;DHT22;877;46.266;20.062;2023-10-08T05:02:16;138.50;15.30
1760;DHT22;877;46.266;20.062;2023-10-08T05:05:14;138.50;15.30
1760;DHT22;877;46.266;20.062;2023-10-08T05:07:43;138.50;15.20
1760;DHT22;877;46.266;20.062;2023-10-08T05:10:12;138.60;15.20
1760;DHT22;877;46.266;20.062;2023-10-08T05:12:51;138.60;15.20
1760;DHT22;877;46.266;20.062;2023-10-08T05:15:27;138.60;15.20
1760;DHT22;877;46.266;20.062;2023-10-08T05:18:04;138.60;15.10
1760;DHT22;877;46.266;20.062;2023-10-08T05:20:44;138.70;15.10
1760;DHT22;877;46.266;20.062;2023-10-08T05:23:17;138.70;15.10
1760;DHT22;877;46.266;20.062;2023-10-08T05:26:06;138.70;15.00
1760;DHT22;877;46.266;20.062;2023-10-08T05:28:36;138.70;15.00
1760;DHT22;877;46.266;20.062;2023-10-08T05:31:14;138.80;15.00
1760;DHT22;877;46.266;20.062;2023-10-08T05:33:43;138.80;15.00
1760;DHT22;877;46.266;20.062;2023-10-08T05:36:27;138.80;15.00
1760;DHT22;877;46.266;20.062;2023-10-08T05:39:02;138.80;15.00
1760;DHT22;877;46.266;20.062;2023-10-08T05:41:45;138.80;15.00
1760;DHT22;877;46.266;20.062;2023-10-08T05:44:29;138.90;15.00
1760;DHT22;877;46.266;20.062;2023-10-08T05:47:05;138.90;15.00
1760;DHT22;877;46.266;20.062;2023-10-08T05:49:37;138.90;15.00
1760;DHT22;877;46.266;20.062;2023-10-08T05:52:21;138.90;15.00
1760;DHT22;877;46.266;20.062;2023-10-08T05:55:07;138.90;15.00
1760;DHT22;877;46.266;20.062;2023-10-08T05:57:55;138.90;15.00
1760;DHT22;877;46.266;20.062;2023-10-08T06:00:50;138.90;15.00
1760;DHT22;877;46.266;20.062;2023-10-08T06:03:17;138.90;15.00
1760;DHT22;877;46.266;20.062;2023-10-08T06:06:07;138.90;15.00
1760;DHT22;877;46.266;20.062;2023-10-08T06:08:53;138.90;15.00
1760;DHT22;877;46.266;20.062;2023-10-08T06:11:47;138.90;15.00
1760;DHT22;877;46.266;20.062;2023-10-08T06:14:33;139.00;15.00
1760;DHT22;877;46.266;20.062;2023-10-08T06:17:18;139.00;14.90
1760;DHT22;877;46.266;20.062;2023-10-08T06:20:01;139.10;14.90
1760;DHT22;877;46.266;20.062;2023-10-08T06:22:35;139.20;14.80
1760;DHT22;877;46.266;20.062;2023-10-08T06:25:02;139.30;14.80
1760;DHT22;877;46.266;20.062;2023-10-08T06:27:44;139.30;14.70
1760;DHT22;877;46.266;20.062;2023-10-08T06:30:13;139.40;14.60
1760;DHT22;877;46.266;20.062;2023-10-08T06:32:45;139.50;14.60
1760;DHT22;877;46.266;20.062;2023-10-08T06:35:12;139.50;14.50
1760;DHT22;877;46.266;20.062;2023-10-08T06:37:45;139.60;14.40
1760;DHT22;877;46.266;20.062;2023-10-08T06:40:14;139.60;14.40
1760;DHT22;877;46.266;20.062;2023-10-08T06:43:00;139.60;14.30
1760;DHT22;877;46.266;20.062;2023-10-08T06:45:38;139.70;14.30
1760;DHT22;877;46.266;20.062;2023-10-08T06:48:06;139.70;14.20
1760;DHT22;877;46.266;20.062;2023-10-08T06:50:32;139.80;14.20
1760;DHT22;877;46.266;20.062;2023-10-08T06:53:06;139.80;14.10
1760;DHT22;877;46.266;20.062;2023-10-08T06:55:36;139.90;14.10
1760;DHT22;877;46.266;20.062;2023-10-08T06:58:03;139.90;14.00
1760;DHT22;877;46.266;20.062;2023-10-08T07:00:32;140.00;14.00
1760;DHT22;877;46.266;20.062;2023-10-08T07:03:04;140.00;13.90
1760;DHT22;877;46.266;20.062;2023-10-08T07:05:33;140.00;13.90
1760;DHT22;877;46.266;20.062;2023-10-08T07:08:03;140.10;13.90
1760;DHT22;877;46.266;20.062;2023-10-08T07:10:35;140.10;13.80
1760;DHT22;877;46.266;20.062;2023-10-08T07:13:01;140.20;13.80
1760;DHT22;877;46.266;20.062;2023-10-08T07:15:29;140.20;13.70
1760;DHT22;877;46.266;20.062;2023-10-08T07:17:56;140.30;13.70
1760;DHT22;877;46.266;20.062;2023-10-08T07:20:22;140.30;13.60
1760;DHT22;877;46.266;20.062;2023-10-08T07:22:49;140.40;13.50
1760;DHT22;877;46.266;20.062;2023-10-08T07:25:21;140.50;13.50
1760;DHT22;877;46.266;20.062;2023-10-08T07:27:48;140.60;13.40
1760;DHT22;877;46.266;20.062;2023-10-08T07:30:15;140.60;13.30
1760;DHT22;877;46.266;20.062;2023-10-08T07:32:52;140.70;13.30
1760;DHT22;877;46.266;20.062;2023-10-08T07:35:20;140.80;13.30
1760;DHT22;877;46.266;20.062;2023-10-08T07:37:46;140.80;13.20
1760;DHT22;877;46.266;20.062;2023-10-08T07:40:13;140.90;13.10
1760;DHT22;877;46.266;20.062;2023-10-08T07:42:40;141.00;13.00
1760;DHT22;877;46.266;20.062;2023-10-08T07:45:06;141.10;13.00
1760;DHT22;877;46.266;20.062;2023-10-08T07:47:32;141.20;12.90
1760;DHT22;877;46.266;20.062;2023-10-08T07:49:58;141.20;12.80
1760;DHT22;877;46.266;20.062;2023-10-08T07:52:37;141.30;12.80
1760;DHT22;877;46.266;20.062;2023-10-08T07:55:03;141.30;12.70
1760;DHT22;877;46.266;20.062;2023-10-08T07:57:31;141.40;12.70
1760;DHT22;877;46.266;20.062;2023-10-08T07:59:57;141.40;12.60
1760;DHT22;877;46.266;20.062;2023-10-08T08:02:43;141.50;12.60
1760;DHT22;877;46.266;20.062;2023-10-08T08:05:08;141.60;12.60
1760;DHT22;877;46.266;20.062;2023-10-08T08:07:34;141.60;12.50
1760;DHT22;877;46.266;20.062;2023-10-08T08:10:00;141.70;12.50
1760;DHT22;877;46.266;20.062;2023-10-08T08:14:54;141.90;12.40
1760;DHT22;877;46.266;20.062;2023-10-08T08:17:20;141.90;12.40
1760;DHT22;877;46.266;20.062;2023-10-08T08:19:49;141.80;12.30
1760;DHT22;877;46.266;20.062;2023-10-08T08:22:20;141.80;12.30
1760;DHT22;877;46.266;20.062;2023-10-08T08:24:56;141.80;12.30
1760;DHT22;877;46.266;20.062;2023-10-08T08:27:32;141.80;12.40
1760;DHT22;877;46.266;20.062;2023-10-08T08:32:39;141.80;12.30
1760;DHT22;877;46.266;20.062;2023-10-08T08:35:09;141.80;12.20
1760;DHT22;877;46.266;20.062;2023-10-08T08:37:36;141.80;12.20
1760;DHT22;877;46.266;20.062;2023-10-08T08:40:04;141.80;12.20
1760;DHT22;877;46.266;20.062;2023-10-08T08:42:47;141.70;12.20
1760;DHT22;877;46.266;20.062;2023-10-08T08:45:21;141.70;12.20
1760;DHT22;877;46.266;20.062;2023-10-08T08:47:47;141.00;12.20
1760;DHT22;877;46.266;20.062;2023-10-08T08:50:13;141.20;12.30
1760;DHT22;877;46.266;20.062;2023-10-08T08:52:40;141.30;12.30
1760;DHT22;877;46.266;20.062;2023-10-08T09:22:33;141.50;12.30
1760;DHT22;877;46.266;20.062;2023-10-08T09:25:01;141.60;12.40
1760;DHT22;877;46.266;20.062;2023-10-08T09:27:30;141.70;12.40
1760;DHT22;877;46.266;20.062;2023-10-08T09:29:56;141.70;12.40
1760;DHT22;877;46.266;20.062;2023-10-08T09:32:22;141.80;12.40
1760;DHT22;877;46.266;20.062;2023-10-08T12:43:38;33.20;58.90
1760;DHT22;877;46.266;20.062;2023-10-08T12:46:05;31.00;100.00
1760;DHT22;877;46.266;20.062;2023-10-08T12:48:36;29.40;100.00
1760;DHT22;877;46.266;20.062;2023-10-08T12:51:03;28.10;100.00
1760;DHT22;877;46.266;20.062;2023-10-08T12:53:32;26.90;100.00
1760;DHT22;877;46.266;20.062;2023-10-08T12:56:06;26.10;100.00
1760;DHT22;877;46.266;20.062;2023-10-08T12:58:37;25.50;100.00
1760;DHT22;877;46.266;20.062;2023-10-08T13:01:12;25.00;100.00
1760;DHT22;877;46.266;20.062;2023-10-08T13:03:40;24.80;100.00
1760;DHT22;877;46.266;20.062;2023-10-08T13:06:18;24.60;100.00
1760;DHT22;877;46.266;20.062;2023-10-08T13:08:51;24.40;100.00
1760;DHT22;877;46.266;20.062;2023-10-08T13:11:22;24.20;100.00
1760;DHT22;877;46.266;20.062;2023-10-08T13:13:52;24.00;100.00
1760;DHT22;877;46.266;20.062;2023-10-08T13:16:19;24.00;100.00
1760;DHT22;877;46.266;20.062;2023-10-08T13:21:13;23.40;100.00
1760;DHT22;877;46.266;20.062;2023-10-08T13:46:01;22.30;51.60
1760;DHT22;877;46.266;20.062;2023-10-08T15:52:46;18.30;58.00
1760;DHT22;877;46.266;20.062;2023-10-08T15:55:13;18.20;57.70
1760;DHT22;877;46.266;20.062;2023-10-08T15:57:39;18.20;58.00
1760;DHT22;877;46.266;20.062;2023-10-08T16:00:06;18.00;58.10
1760;DHT22;877;46.266;20.062;2023-10-08T16:02:34;17.90;58.50
1760;DHT22;877;46.266;20.062;2023-10-08T16:04:59;18.00;58.70
1760;DHT22;877;46.266;20.062;2023-10-08T16:07:26;18.00;58.40
1760;DHT22;877;46.266;20.062;2023-10-08T16:09:51;17.90;57.40
1760;DHT22;877;46.266;20.062;2023-10-08T16:12:18;17.90;57.80
1760;DHT22;877;46.266;20.062;2023-10-08T16:14:44;18.00;57.80
1760;DHT22;877;46.266;20.062;2023-10-08T16:17:12;18.00;58.00
1760;DHT22;877;46.266;20.062;2023-10-08T16:19:41;17.90;58.10
1760;DHT22;877;46.266;20.062;2023-10-08T16:22:07;17.90;58.00
1760;DHT22;877;46.266;20.062;2023-10-08T16:24:35;17.90;57.30
1760;DHT22;877;46.266;20.062;2023-10-08T16:27:04;17.70;57.60
1760;DHT22;877;46.266;20.062;2023-10-08T16:29:30;17.80;56.70
1760;DHT22;877;46.266;20.062;2023-10-08T16:32:02;17.90;56.60
1760;DHT22;877;46.266;20.062;2023-10-08T16:34:29;18.00;56.10
1760;DHT22;877;46.266;20.062;2023-10-08T16:36:55;18.00;56.20
1760;DHT22;877;46.266;20.062;2023-10-08T16:39:21;17.90;56.30
1760;DHT22;877;46.266;20.062;2023-10-08T16:41:52;17.80;55.90
1760;DHT22;877;46.266;20.062;2023-10-08T16:44:19;18.00;55.90
1760;DHT22;877;46.266;20.062;2023-10-08T16:46:46;17.90;56.30
1760;DHT22;877;46.266;20.062;2023-10-08T16:49:12;17.90;56.10
1760;DHT22;877;46.266;20.062;2023-10-08T16:51:38;17.90;55.70
1760;DHT22;877;46.266;20.062;2023-10-08T16:54:05;17.80;55.70
1760;DHT22;877;46.266;20.062;2023-10-08T16:56:34;17.70;56.00
1760;DHT22;877;46.266;20.062;2023-10-08T16:59:00;17.90;56.20
1760;DHT22;877;46.266;20.062;2023-10-08T17:01:28;17.80;56.10
1760;DHT22;877;46.266;20.062;2023-10-08T17:03:54;17.80;56.00
1760;DHT22;877;46.266;20.062;2023-10-08T17:06:20;17.60;56.00
1760;DHT22;877;46.266;20.062;2023-10-08T17:08:47;17.60;55.80
1760;DHT22;877;46.266;20.062;2023-10-08T17:11:13;17.70;55.80
1760;DHT22;877;46.266;20.062;2023-10-08T17:13:42;17.60;55.70
1760;DHT22;877;46.266;20.062;2023-10-08T17:16:08;17.60;56.10
1760;DHT22;877;46.266;20.062;2023-10-08T17:18:39;17.50;56.40
1760;DHT22;877;46.266;20.062;2023-10-08T17:21:06;17.50;55.90
1760;DHT22;877;46.266;20.062;2023-10-08T17:23:32;17.50;55.50
1760;DHT22;877;46.266;20.062;2023-10-08T17:25:58;17.40;55.60
1760;DHT22;877;46.266;20.062;2023-10-08T17:28:25;17.40;55.80
1760;DHT22;877;46.266;20.062;2023-10-08T17:30:51;17.50;55.30
1760;DHT22;877;46.266;20.062;2023-10-08T17:33:17;17.50;55.60
1760;DHT22;877;46.266;20.062;2023-10-08T17:35:43;17.60;55.70
1760;DHT22;877;46.266;20.062;2023-10-08T17:38:09;17.40;56.00
1760;DHT22;877;46.266;20.062;2023-10-08T17:40:39;17.40;56.30
1760;DHT22;877;46.266;20.062;2023-10-08T17:43:08;17.40;56.20
1760;DHT22;877;46.266;20.062;2023-10-08T17:45:37;17.40;56.50
1760;DHT22;877;46.266;20.062;2023-10-08T17:48:07;17.40;56.60
1760;DHT22;877;46.266;20.062;2023-10-08T17:50:33;17.30;56.90
1760;DHT22;877;46.266;20.062;2023-10-08T17:53:02;17.20;57.70
1760;DHT22;877;46.266;20.062;2023-10-08T17:55:28;17.00;58.00
1760;DHT22;877;46.266;20.062;2023-10-08T17:57:54;16.50;59.00
1760;DHT22;877;46.266;20.062;2023-10-08T18:00:20;16.20;60.20
1760;DHT22;877;46.266;20.062;2023-10-08T18:02:50;15.70;61.90
1760;DHT22;877;46.266;20.062;2023-10-08T18:05:17;15.30;63.30
1760;DHT22;877;46.266;20.062;2023-10-08T18:07:48;15.50;63.20
1760;DHT22;877;46.266;20.062;2023-10-08T18:10:17;16.00;62.30
1760;DHT22;877;46.266;20.062;2023-10-08T18:12:46;16.20;61.60
1760;DHT22;877;46.266;20.062;2023-10-08T18:15:13;16.30;61.10
1760;DHT22;877;46.266;20.062;2023-10-08T18:17:46;16.10;61.40
1760;DHT22;877;46.266;20.062;2023-10-08T18:20:16;15.80;61.60
1760;DHT22;877;46.266;20.062;2023-10-08T18:22:50;15.50;62.10
1760;DHT22;877;46.266;20.062;2023-10-08T18:25:19;15.40;62.90
1760;DHT22;877;46.266;20.062;2023-10-08T18:27:45;15.70;62.70
1760;DHT22;877;46.266;20.062;2023-10-08T18:30:12;15.80;62.70
1760;DHT22;877;46.266;20.062;2023-10-08T18:32:38;15.40;63.10
1760;DHT22;877;46.266;20.062;2023-10-08T18:35:06;15.00;64.20
1760;DHT22;877;46.266;20.062;2023-10-08T18:37:35;14.50;66.20
1760;DHT22;877;46.266;20.062;2023-10-08T18:40:02;14.50;66.50
1760;DHT22;877;46.266;20.062;2023-10-08T18:42:41;14.80;66.20
1760;DHT22;877;46.266;20.062;2023-10-08T18:45:09;14.90;65.30
1760;DHT22;877;46.266;20.062;2023-10-08T18:47:37;14.20;66.90
1760;DHT22;877;46.266;20.062;2023-10-08T18:50:06;14.40;66.60
1760;DHT22;877;46.266;20.062;2023-10-08T18:52:34;14.30;66.70
1760;DHT22;877;46.266;20.062;2023-10-08T18:55:01;14.40;66.20
1760;DHT22;877;46.266;20.062;2023-10-08T18:57:28;14.50;65.80
1760;DHT22;877;46.266;20.062;2023-10-08T18:59:54;14.40;66.20
1760;DHT22;877;46.266;20.062;2023-10-08T19:02:19;14.30;66.40
1760;DHT22;877;46.266;20.062;2023-10-08T19:04:46;14.30;66.80
1760;DHT22;877;46.266;20.062;2023-10-08T19:07:13;14.20;67.00
1760;DHT22;877;46.266;20.062;2023-10-08T19:09:39;14.10;67.60
1760;DHT22;877;46.266;20.062;2023-10-08T19:12:05;14.10;68.20
1760;DHT22;877;46.266;20.062;2023-10-08T19:14:34;13.70;70.00
1760;DHT22;877;46.266;20.062;2023-10-08T19:17:00;13.80;69.60
1760;DHT22;877;46.266;20.062;2023-10-08T19:19:26;14.00;69.20
1760;DHT22;877;46.266;20.062;2023-10-08T19:21:56;14.00;68.60
1760;DHT22;877;46.266;20.062;2023-10-08T19:24:21;14.00;68.80
1760;DHT22;877;46.266;20.062;2023-10-08T19:26:47;13.90;68.80
1760;DHT22;877;46.266;20.062;2023-10-08T19:29:13;13.70;68.90
1760;DHT22;877;46.266;20.062;2023-10-08T19:31:39;13.60;69.30
1760;DHT22;877;46.266;20.062;2023-10-08T19:34:05;13.40;70.30
1760;DHT22;877;46.266;20.062;2023-10-08T19:36:36;13.60;69.90
1760;DHT22;877;46.266;20.062;2023-10-08T19:39:04;13.30;70.80
1760;DHT22;877;46.266;20.062;2023-10-08T19:41:32;13.20;71.40
1760;DHT22;877;46.266;20.062;2023-10-08T19:43:58;12.80;73.10
1760;DHT22;877;46.266;20.062;2023-10-08T19:46:24;12.90;73.10
1760;DHT22;877;46.266;20.062;2023-10-08T19:48:51;13.00;73.10
1760;DHT22;877;46.266;20.062;2023-10-08T19:51:17;13.00;73.00
1760;DHT22;877;46.266;20.062;2023-10-08T19:53:44;12.90;73.10
1760;DHT22;877;46.266;20.062;2023-10-08T19:56:15;12.80;73.90
1760;DHT22;877;46.266;20.062;2023-10-08T19:58:44;12.70;73.80
1760;DHT22;877;46.266;20.062;2023-10-08T20:01:10;12.70;74.00
1760;DHT22;877;46.266;20.062;2023-10-08T20:03:37;12.70;73.80
1760;DHT22;877;46.266;20.062;2023-10-08T20:06:03;12.70;73.50
1760;DHT22;877;46.266;20.062;2023-10-08T20:08:32;12.70;73.20
1760;DHT22;877;46.266;20.062;2023-10-08T20:10:58;12.90;72.10
1760;DHT22;877;46.266;20.062;2023-10-08T20:13:24;12.80;71.70
1760;DHT22;877;46.266;20.062;2023-10-08T20:15:50;12.70;71.90
1760;DHT22;877;46.266;20.062;2023-10-08T20:18:17;12.60;72.30
1760;DHT22;877;46.266;20.062;2023-10-08T20:20:47;12.60;71.90
1760;DHT22;877;46.266;20.062;2023-10-08T20:23:14;12.50;72.30
1760;DHT22;877;46.266;20.062;2023-10-08T20:25:41;12.40;72.20
1760;DHT22;877;46.266;20.062;2023-10-08T20:28:11;12.30;72.50
1760;DHT22;877;46.266;20.062;2023-10-08T20:30:40;12.30;72.60
1760;DHT22;877;46.266;20.062;2023-10-08T20:33:08;12.20;72.80
1760;DHT22;877;46.266;20.062;2023-10-08T20:35:37;12.20;73.00
1760;DHT22;877;46.266;20.062;2023-10-08T20:38:03;12.10;73.00
1760;DHT22;877;46.266;20.062;2023-10-08T20:40:32;12.10;72.90
1760;DHT22;877;46.266;20.062;2023-10-08T20:42:58;12.10;73.10
